Time,TemperatureF,DewpointF,PressureIn,WindDirection,WindDirectionDegrees,WindSpeedMPH,WindSpeedGustMPH,Humidity,HourlyPrecipIn,Conditions,Clouds,dailyrainin,SoftwareType,DateUTC
2013-05-08 00:01:00,64.7,50.5,29.91,West,279,4.0,23.0,60,0.00,,,0.00,Weather View 32 v70,2013-05-08 07:01:00,
2013-05-08 00:06:00,64.3,50.1,29.91,SW,230,8.0,23.0,60,0.00,,,0.00,Weather View 32 v70,2013-05-08 07:06:00,
2013-05-08 00:11:00,64.0,50.2,29.91,SW,215,9.0,23.0,61,0.00,,,0.00,Weather View 32 v70,2013-05-08 07:11:00,
2013-05-08 00:16:00,63.9,50.2,29.91,West,267,5.0,23.0,61,0.00,,,0.00,Weather View 32 v70,2013-05-08 07:16:00,
2013-05-08 00:21:00,63.7,50.0,29.91,WSW,252,8.0,23.0,61,0.00,,,0.00,Weather View 32 v70,2013-05-08 07:21:00,
2013-05-08 00:26:00,63.7,50.0,29.92,SSW,208,7.0,23.0,61,0.00,,,0.00,Weather View 32 v70,2013-05-08 07:26:00,
2013-05-08 00:31:00,63.5,50.2,29.92,WSW,247,10.0,23.0,62,0.00,,,0.00,Weather View 32 v70,2013-05-08 07:31:00,
2013-05-08 00:36:00,63.2,49.9,29.92,WSW,238,8.0,23.0,62,0.00,,,0.00,Weather View 32 v70,2013-05-08 07:36:00,
2013-05-08 00:41:00,63.1,50.3,29.92,West,267,9.0,23.0,63,0.00,,,0.00,Weather View 32 v70,2013-05-08 07:41:00,
2013-05-08 00:46:00,62.7,49.9,29.92,West,266,5.0,21.0,63,0.00,,,0.00,Weather View 32 v70,2013-05-08 07:46:00,
2013-05-08 00:51:00,62.6,49.8,29.92,SW,223,9.0,21.0,63,0.00,,,0.00,Weather View 32 v70,2013-05-08 07:51:00,
2013-05-08 00:56:00,62.4,50.0,29.92,SW,234,3.0,21.0,64,0.00,,,0.00,Weather View 32 v70,2013-05-08 07:56:00,
2013-05-08 01:01:00,62.4,50.0,29.93,SW,215,7.0,21.0,64,0.00,,,0.00,Weather View 32 v70,2013-05-08 08:01:00,
2013-05-08 01:06:00,62.1,49.7,29.93,NW,304,8.0,21.0,64,0.00,,,0.00,Weather View 32 v70,2013-05-08 08:06:00,
2013-05-08 01:11:00,62.0,50.1,29.93,WNW,299,5.0,22.0,65,0.00,,,0.00,Weather View 32 v70,2013-05-08 08:11:00,
2013-05-08 01:16:00,61.8,49.9,29.93,SW,236,10.0,22.0,65,0.00,,,0.00,Weather View 32 v70,2013-05-08 08:16:00,
2013-05-08 01:21:00,61.8,49.9,29.93,NW,309,1.0,22.0,65,0.00,,,0.00,Weather View 32 v70,2013-05-08 08:21:00,
2013-05-08 01:26:00,61.6,49.7,29.94,SSW,209,8.0,22.0,65,0.00,,,0.00,Weather View 32 v70,2013-05-08 08:26:00,
2013-05-08 01:31:00,61.5,50.0,29.94,West,274,6.0,22.0,66,0.00,,,0.00,Weather View 32 v70,2013-05-08 08:31:00,
2013-05-08 01:36:00,61.2,49.7,29.94,West,265,8.0,22.0,66,0.00,,,0.00,Weather View 32 v70,2013-05-08 08:36:00,
2013-05-08 01:41:00,61.0,49.5,29.94,SW,227,6.0,22.0,66,0.00,,,0.00,Weather View 32 v70,2013-05-08 08:41:00,
2013-05-08 01:46:00,60.9,49.4,29.94,West,259,6.0,22.0,66,0.00,,,0.00,Weather View 32 v70,2013-05-08 08:46:00,
2013-05-08 01:50:00,60.7,49.2,29.94,WSW,245,2.0,22.0,66,0.00,,,0.00,Weather View 32 v70,2013-05-08 08:50:00,
2013-05-08 01:56:00,60.7,49.7,29.94,West,263,4.0,22.0,67,0.00,,,0.00,Weather View 32 v70,2013-05-08 08:56:00,
2013-05-08 02:01:00,60.5,49.5,29.94,WSW,242,4.0,22.0,67,0.00,,,0.00,Weather View 32 v70,2013-05-08 09:01:00,
2013-05-08 02:05:00,60.4,49.4,29.94,West,280,4.0,22.0,67,0.00,,,0.00,Weather View 32 v70,2013-05-08 09:05:00,
2013-05-08 02:10:00,60.1,49.1,29.95,WSW,244,6.0,20.0,67,0.00,,,0.00,Weather View 32 v70,2013-05-08 09:10:00,
2013-05-08 02:15:00,59.9,48.9,29.95,West,259,10.0,21.0,67,0.00,,,0.00,Weather View 32 v70,2013-05-08 09:15:00,
2013-05-08 02:20:00,59.9,48.9,29.95,WNW,298,8.0,21.0,67,0.00,,,0.00,Weather View 32 v70,2013-05-08 09:20:00,
2013-05-08 02:25:00,59.9,48.9,29.95,West,263,10.0,24.0,67,0.00,,,0.00,Weather View 32 v70,2013-05-08 09:25:00,
2013-05-08 02:30:00,59.8,48.8,29.95,WSW,238,11.0,24.0,67,0.00,,,0.00,Weather View 32 v70,2013-05-08 09:30:00,
2013-05-08 02:35:00,59.8,49.2,29.95,SW,233,5.0,24.0,68,0.00,,,0.00,Weather View 32 v70,2013-05-08 09:35:00,
2013-05-08 02:40:00,59.6,49.0,29.95,SW,223,12.0,24.0,68,0.00,,,0.00,Weather View 32 v70,2013-05-08 09:40:00,
2013-05-08 02:45:00,59.5,48.9,29.95,WSW,244,8.0,24.0,68,0.00,,,0.00,Weather View 32 v70,2013-05-08 09:45:00,
2013-05-08 02:50:00,59.5,48.9,29.95,West,264,3.0,24.0,68,0.00,,,0.00,Weather View 32 v70,2013-05-08 09:50:00,
2013-05-08 02:55:00,59.3,48.7,29.95,SW,214,1.0,24.0,68,0.00,,,0.00,Weather View 32 v70,2013-05-08 09:55:00,
2013-05-08 03:00:00,59.3,48.7,29.96,WNW,284,11.0,24.0,68,0.00,,,0.00,Weather View 32 v70,2013-05-08 10:00:00,
2013-05-08 03:05:00,59.2,49.0,29.96,WNW,286,11.0,24.0,69,0.00,,,0.00,Weather View 32 v70,2013-05-08 10:05:00,
2013-05-08 03:10:00,59.2,48.6,29.96,SW,235,14.0,24.0,68,0.00,,,0.00,Weather View 32 v70,2013-05-08 10:10:00,
2013-05-08 03:15:00,59.2,48.6,29.95,West,270,3.0,24.0,68,0.00,,,0.00,Weather View 32 v70,2013-05-08 10:15:00,
2013-05-08 03:20:00,59.0,48.4,29.96,West,269,9.0,24.0,68,0.00,,,0.00,Weather View 32 v70,2013-05-08 10:20:00,
2013-05-08 03:25:00,59.0,48.4,29.96,West,270,3.0,24.0,68,0.00,,,0.00,Weather View 32 v70,2013-05-08 10:25:00,
2013-05-08 03:30:00,59.0,48.4,29.96,West,263,7.0,23.0,68,0.00,,,0.00,Weather View 32 v70,2013-05-08 10:30:00,
2013-05-08 03:35:00,58.9,48.3,29.96,West,281,4.0,23.0,68,0.00,,,0.00,Weather View 32 v70,2013-05-08 10:35:00,
2013-05-08 03:40:00,58.9,48.3,29.96,WSW,249,2.0,21.0,68,0.00,,,0.00,Weather View 32 v70,2013-05-08 10:40:00,
2013-05-08 03:45:00,58.7,48.1,29.97,West,269,4.0,21.0,68,0.00,,,0.00,Weather View 32 v70,2013-05-08 10:45:00,
2013-05-08 03:50:00,58.6,48.0,29.96,West,273,14.0,21.0,68,0.00,,,0.00,Weather View 32 v70,2013-05-08 10:50:00,
2013-05-08 03:55:00,58.6,48.0,29.97,WNW,298,3.0,21.0,68,0.00,,,0.00,Weather View 32 v70,2013-05-08 10:55:00,
2013-05-08 04:00:00,58.6,48.4,29.97,WSW,251,11.0,21.0,69,0.00,,,0.00,Weather View 32 v70,2013-05-08 11:00:00,
2013-05-08 04:05:00,58.4,47.9,29.97,WSW,256,7.0,21.0,68,0.00,,,0.00,Weather View 32 v70,2013-05-08 11:05:00,
2013-05-08 04:10:00,58.3,48.2,29.97,West,265,6.0,21.0,69,0.00,,,0.00,Weather View 32 v70,2013-05-08 11:10:00,
2013-05-08 04:15:00,58.3,48.2,29.97,West,269,5.0,21.0,69,0.00,,,0.00,Weather View 32 v70,2013-05-08 11:15:00,
2013-05-08 04:20:00,58.3,48.2,29.97,WSW,245,2.0,21.0,69,0.00,,,0.00,Weather View 32 v70,2013-05-08 11:20:00,
2013-05-08 04:25:00,58.1,48.0,29.97,WSW,248,4.0,21.0,69,0.00,,,0.00,Weather View 32 v70,2013-05-08 11:25:00,
2013-05-08 04:30:00,58.1,48.0,29.97,West,271,3.0,21.0,69,0.00,,,0.00,Weather View 32 v70,2013-05-08 11:30:00,
2013-05-08 04:35:00,58.0,47.9,29.97,WNW,284,5.0,21.0,69,0.00,,,0.00,Weather View 32 v70,2013-05-08 11:35:00,
2013-05-08 04:40:00,58.0,47.9,29.96,West,281,4.0,21.0,69,0.00,,,0.00,Weather View 32 v70,2013-05-08 11:40:00,
2013-05-08 04:45:00,57.8,47.7,29.97,WSW,239,10.0,23.0,69,0.00,,,0.00,Weather View 32 v70,2013-05-08 11:45:00,
2013-05-08 04:50:00,57.8,47.7,29.97,West,267,5.0,23.0,69,0.00,,,0.00,Weather View 32 v70,2013-05-08 11:50:00,
2013-05-08 04:55:00,57.6,47.5,29.97,WNW,291,2.0,23.0,69,0.00,,,0.00,Weather View 32 v70,2013-05-08 11:55:00,
2013-05-08 05:00:00,57.5,47.8,29.97,WSW,251,3.0,23.0,70,0.00,,,0.00,Weather View 32 v70,2013-05-08 12:00:00,
2013-05-08 05:05:00,57.5,47.8,29.97,WNW,303,16.0,23.0,70,0.00,,,0.00,Weather View 32 v70,2013-05-08 12:05:00,
2013-05-08 05:10:00,57.5,47.8,29.97,West,280,6.0,24.0,70,0.00,,,0.00,Weather View 32 v70,2013-05-08 12:10:00,
2013-05-08 05:15:00,57.3,47.6,29.97,WSW,240,6.0,24.0,70,0.00,,,0.00,Weather View 32 v70,2013-05-08 12:15:00,
2013-05-08 05:20:00,57.2,47.9,29.97,West,266,10.0,24.0,71,0.00,,,0.00,Weather View 32 v70,2013-05-08 12:20:00,
2013-05-08 05:25:00,57.2,47.9,29.97,WNW,284,2.0,24.0,71,0.00,,,0.00,Weather View 32 v70,2013-05-08 12:25:00,
2013-05-08 05:30:00,57.2,47.9,29.97,West,273,3.0,24.0,71,0.00,,,0.00,Weather View 32 v70,2013-05-08 12:30:00,
2013-05-08 05:35:00,57.0,47.7,29.97,West,265,3.0,24.0,71,0.00,,,0.00,Weather View 32 v70,2013-05-08 12:35:00,
2013-05-08 05:40:00,57.0,47.7,29.97,WSW,254,12.0,24.0,71,0.00,,,0.00,Weather View 32 v70,2013-05-08 12:40:00,
2013-05-08 05:45:00,57.2,47.9,29.97,WSW,256,9.0,24.0,71,0.00,,,0.00,Weather View 32 v70,2013-05-08 12:45:00,
2013-05-08 05:50:00,57.2,47.9,29.97,West,268,4.0,24.0,71,0.00,,,0.00,Weather View 32 v70,2013-05-08 12:50:00,
2013-05-08 05:55:00,57.2,47.9,29.97,WSW,245,13.0,24.0,71,0.00,,,0.00,Weather View 32 v70,2013-05-08 12:55:00,
2013-05-08 06:00:00,57.0,47.7,29.97,North,0,2.0,24.0,71,0.00,,,0.00,Weather View 32 v70,2013-05-08 13:00:00,
2013-05-08 06:05:00,57.0,47.7,29.97,WSW,258,4.0,24.0,71,0.00,,,0.00,Weather View 32 v70,2013-05-08 13:05:00,
2013-05-08 06:10:00,57.0,47.7,29.97,West,273,7.0,18.0,71,0.00,,,0.00,Weather View 32 v70,2013-05-08 13:10:00,
2013-05-08 06:15:00,56.9,47.6,29.97,West,273,10.0,18.0,71,0.00,,,0.00,Weather View 32 v70,2013-05-08 13:15:00,
2013-05-08 06:20:00,56.9,47.6,29.97,WSW,256,7.0,18.0,71,0.00,,,0.00,Weather View 32 v70,2013-05-08 13:20:00,
2013-05-08 06:25:00,56.9,47.6,29.97,West,271,10.0,18.0,71,0.00,,,0.00,Weather View 32 v70,2013-05-08 13:25:00,
2013-05-08 06:30:00,57.0,47.7,29.98,WSW,248,3.0,21.0,71,0.00,,,0.00,Weather View 32 v70,2013-05-08 13:30:00,
2013-05-08 06:35:00,57.2,47.9,29.98,WSW,252,9.0,21.0,71,0.00,,,0.00,Weather View 32 v70,2013-05-08 13:35:00,
2013-05-08 06:40:00,57.2,47.5,29.98,WNW,285,4.0,21.0,70,0.00,,,0.00,Weather View 32 v70,2013-05-08 13:40:00,
2013-05-08 06:45:00,57.3,47.6,29.98,West,269,13.0,21.0,70,0.00,,,0.00,Weather View 32 v70,2013-05-08 13:45:00,
2013-05-08 06:50:00,57.3,47.6,29.98,WNW,292,3.0,21.0,70,0.00,,,0.00,Weather View 32 v70,2013-05-08 13:50:00,
2013-05-08 06:55:00,57.5,47.8,29.98,WNW,283,4.0,21.0,70,0.00,,,0.00,Weather View 32 v70,2013-05-08 13:55:00,
2013-05-08 07:00:00,57.5,47.8,29.99,WSW,248,4.0,21.0,70,0.00,,,0.00,Weather View 32 v70,2013-05-08 14:00:00,
2013-05-08 07:05:00,57.5,47.8,29.99,WNW,298,8.0,21.0,70,0.00,,,0.00,Weather View 32 v70,2013-05-08 14:05:00,
2013-05-08 07:10:00,57.6,47.9,29.99,WNW,292,5.0,21.0,70,0.00,,,0.00,Weather View 32 v70,2013-05-08 14:10:00,
2013-05-08 07:15:00,57.8,48.1,29.99,WNW,287,3.0,21.0,70,0.00,,,0.00,Weather View 32 v70,2013-05-08 14:15:00,
2013-05-08 07:20:00,57.8,48.1,29.99,WNW,290,9.0,21.0,70,0.00,,,0.00,Weather View 32 v70,2013-05-08 14:20:00,
2013-05-08 07:25:00,57.8,47.7,29.99,West,279,14.0,21.0,69,0.00,,,0.00,Weather View 32 v70,2013-05-08 14:25:00,
2013-05-08 07:30:00,57.8,47.7,29.99,West,281,3.0,20.0,69,0.00,,,0.00,Weather View 32 v70,2013-05-08 14:30:00,
2013-05-08 07:35:00,58.0,48.2,30.00,West,267,10.0,20.0,70,0.00,,,0.00,Weather View 32 v70,2013-05-08 14:35:00,
2013-05-08 07:40:00,58.1,48.0,29.99,WSW,241,14.0,19.0,69,0.00,,,0.00,Weather View 32 v70,2013-05-08 14:40:00,
2013-05-08 07:45:00,58.1,48.0,29.99,WSW,252,2.0,19.0,69,0.00,,,0.00,Weather View 32 v70,2013-05-08 14:45:00,
2013-05-08 07:50:00,58.4,48.2,29.99,WSW,253,9.0,19.0,69,0.00,,,0.00,Weather View 32 v70,2013-05-08 14:50:00,
2013-05-08 07:55:00,58.4,48.2,29.99,West,279,2.0,19.0,69,0.00,,,0.00,Weather View 32 v70,2013-05-08 14:55:00,
2013-05-08 08:00:00,58.4,47.9,30.00,WSW,248,10.0,22.0,68,0.00,,,0.00,Weather View 32 v70,2013-05-08 15:00:00,
2013-05-08 08:05:00,58.6,48.4,30.00,West,266,3.0,22.0,69,0.00,,,0.00,Weather View 32 v70,2013-05-08 15:05:00,
2013-05-08 08:10:00,58.6,48.4,30.00,West,265,10.0,22.0,69,0.00,,,0.00,Weather View 32 v70,2013-05-08 15:10:00,
2013-05-08 08:15:00,58.6,48.4,30.00,West,271,14.0,22.0,69,0.00,,,0.00,Weather View 32 v70,2013-05-08 15:15:00,
2013-05-08 08:20:00,58.6,48.4,30.00,WNW,292,11.0,22.0,69,0.00,,,0.00,Weather View 32 v70,2013-05-08 15:20:00,
2013-05-08 08:25:00,58.7,48.5,30.00,West,264,13.0,22.0,69,0.00,,,0.00,Weather View 32 v70,2013-05-08 15:25:00,
2013-05-08 08:30:00,58.7,48.1,30.00,West,277,16.0,22.0,68,0.00,,,0.00,Weather View 32 v70,2013-05-08 15:30:00,
2013-05-08 08:35:00,58.9,48.3,30.00,West,270,7.0,22.0,68,0.00,,,0.00,Weather View 32 v70,2013-05-08 15:35:00,
2013-05-08 08:40:00,59.2,48.2,30.00,WNW,291,2.0,22.0,67,0.00,,,0.00,Weather View 32 v70,2013-05-08 15:40:00,
2013-05-08 08:45:00,59.5,48.5,30.00,West,269,5.0,22.0,67,0.00,,,0.00,Weather View 32 v70,2013-05-08 15:45:00,
2013-05-08 08:50:00,59.5,48.5,30.00,West,261,13.0,22.0,67,0.00,,,0.00,Weather View 32 v70,2013-05-08 15:50:00,
2013-05-08 08:55:00,59.5,48.5,29.99,West,278,5.0,22.0,67,0.00,,,0.00,Weather View 32 v70,2013-05-08 15:55:00,
2013-05-08 09:00:00,59.6,48.6,30.00,West,271,14.0,22.0,67,0.00,,,0.00,Weather View 32 v70,2013-05-08 16:00:00,
2013-05-08 09:05:00,59.8,48.8,30.00,WNW,284,10.0,21.0,67,0.00,,,0.00,Weather View 32 v70,2013-05-08 16:05:00,
2013-05-08 09:10:00,60.1,48.7,29.99,WNW,300,9.0,21.0,66,0.00,,,0.00,Weather View 32 v70,2013-05-08 16:10:00,
2013-05-08 09:15:00,60.4,49.0,30.00,WSW,247,9.0,21.0,66,0.00,,,0.00,Weather View 32 v70,2013-05-08 16:15:00,
2013-05-08 09:20:00,60.5,48.6,30.00,WNW,300,7.0,21.0,65,0.00,,,0.00,Weather View 32 v70,2013-05-08 16:20:00,
2013-05-08 09:25:00,61.0,49.1,30.00,West,271,10.0,21.0,65,0.00,,,0.00,Weather View 32 v70,2013-05-08 16:25:00,
2013-05-08 09:30:00,61.0,48.7,30.00,WNW,286,12.0,21.0,64,0.00,,,0.00,Weather View 32 v70,2013-05-08 16:30:00,
2013-05-08 09:35:00,61.2,49.3,30.00,WNW,283,9.0,20.0,65,0.00,,,0.00,Weather View 32 v70,2013-05-08 16:35:00,
2013-05-08 09:40:00,61.3,49.0,30.00,WSW,237,11.0,20.0,64,0.00,,,0.00,Weather View 32 v70,2013-05-08 16:40:00,
2013-05-08 09:45:00,61.3,49.0,30.00,West,281,10.0,22.0,64,0.00,,,0.00,Weather View 32 v70,2013-05-08 16:45:00,
2013-05-08 09:50:00,61.6,49.3,30.00,WNW,300,5.0,22.0,64,0.00,,,0.00,Weather View 32 v70,2013-05-08 16:50:00,
2013-05-08 09:55:00,61.8,49.0,30.00,NW,318,2.0,22.0,63,0.00,,,0.00,Weather View 32 v70,2013-05-08 16:55:00,
2013-05-08 10:00:00,62.0,49.7,30.00,WSW,258,8.0,22.0,64,0.00,,,0.00,Weather View 32 v70,2013-05-08 17:00:00,
2013-05-08 10:05:00,62.3,49.1,30.00,WNW,302,9.0,22.0,62,0.00,,,0.00,Weather View 32 v70,2013-05-08 17:05:00,
2013-05-08 10:10:00,62.4,49.6,30.00,NW,313,11.0,22.0,63,0.00,,,0.00,Weather View 32 v70,2013-05-08 17:10:00,
2013-05-08 10:15:00,62.6,49.4,30.00,WNW,302,3.0,22.0,62,0.00,,,0.00,Weather View 32 v70,2013-05-08 17:15:00,
2013-05-08 10:20:00,62.9,49.6,30.00,West,278,18.0,22.0,62,0.00,,,0.00,Weather View 32 v70,2013-05-08 17:20:00,
2013-05-08 10:25:00,62.9,49.6,30.00,WNW,288,6.0,22.0,62,0.00,,,0.00,Weather View 32 v70,2013-05-08 17:25:00,
2013-05-08 10:30:00,63.2,49.5,30.00,WNW,294,11.0,22.0,61,0.00,,,0.00,Weather View 32 v70,2013-05-08 17:30:00,
2013-05-08 10:35:00,63.4,49.7,30.00,WNW,292,8.0,22.0,61,0.00,,,0.00,Weather View 32 v70,2013-05-08 17:35:00,
2013-05-08 10:40:00,63.4,50.1,30.00,NW,306,12.0,22.0,62,0.00,,,0.00,Weather View 32 v70,2013-05-08 17:40:00,
2013-05-08 10:45:00,63.7,49.5,30.01,WNW,284,14.0,22.0,60,0.00,,,0.00,Weather View 32 v70,2013-05-08 17:45:00,
2013-05-08 10:50:00,63.9,48.8,30.00,West,267,7.0,22.0,58,0.00,,,0.00,Weather View 32 v70,2013-05-08 17:50:00,
2013-05-08 10:55:00,64.0,49.8,30.00,WNW,286,13.0,26.0,60,0.00,,,0.00,Weather View 32 v70,2013-05-08 17:55:00,
2013-05-08 11:00:00,64.0,49.3,30.00,WNW,287,5.0,26.0,59,0.00,,,0.00,Weather View 32 v70,2013-05-08 18:00:00,
2013-05-08 11:05:00,64.2,49.5,30.00,NW,324,6.0,26.0,59,0.00,,,0.00,Weather View 32 v70,2013-05-08 18:05:00,
2013-05-08 11:10:00,64.7,49.5,30.00,WNW,300,5.0,26.0,58,0.00,,,0.00,Weather View 32 v70,2013-05-08 18:10:00,
2013-05-08 11:15:00,65.0,49.8,30.00,WNW,283,12.0,26.0,58,0.00,,,0.00,Weather View 32 v70,2013-05-08 18:15:00,
2013-05-08 11:20:00,64.8,49.6,30.00,NW,309,5.0,26.0,58,0.00,,,0.00,Weather View 32 v70,2013-05-08 18:20:00,
2013-05-08 11:25:00,65.2,50.0,30.00,WSW,257,11.0,26.0,58,0.00,,,0.00,Weather View 32 v70,2013-05-08 18:25:00,
2013-05-08 11:30:00,65.3,50.1,30.00,NW,311,9.0,26.0,58,0.00,,,0.00,Weather View 32 v70,2013-05-08 18:30:00,
2013-05-08 11:35:00,65.5,49.8,30.00,NW,315,9.0,26.0,57,0.00,,,0.00,Weather View 32 v70,2013-05-08 18:35:00,
2013-05-08 11:40:00,65.8,50.1,30.00,West,261,3.0,26.0,57,0.00,,,0.00,Weather View 32 v70,2013-05-08 18:40:00,
2013-05-08 11:45:00,65.8,49.6,30.00,NW,308,10.0,26.0,56,0.00,,,0.00,Weather View 32 v70,2013-05-08 18:45:00,
2013-05-08 11:50:00,65.6,49.9,30.00,West,270,5.0,26.0,57,0.00,,,0.00,Weather View 32 v70,2013-05-08 18:50:00,
2013-05-08 11:55:00,66.0,50.3,30.00,WNW,288,14.0,22.0,57,0.00,,,0.00,Weather View 32 v70,2013-05-08 18:55:00,
2013-05-08 12:00:00,66.4,49.7,30.00,West,265,9.0,22.0,55,0.00,,,0.00,Weather View 32 v70,2013-05-08 19:00:00,
2013-05-08 12:05:00,66.8,50.1,30.00,WSW,258,7.0,22.0,55,0.00,,,0.00,Weather View 32 v70,2013-05-08 19:05:00,
2013-05-08 12:10:00,66.8,50.1,30.00,West,271,8.0,22.0,55,0.00,,,0.00,Weather View 32 v70,2013-05-08 19:10:00,
2013-05-08 12:15:00,66.8,50.1,30.00,NNW,329,15.0,22.0,55,0.00,,,0.00,Weather View 32 v70,2013-05-08 19:15:00,
2013-05-08 12:20:00,66.9,49.7,29.99,WSW,257,8.0,22.0,54,0.00,,,0.00,Weather View 32 v70,2013-05-08 19:20:00,
2013-05-08 12:25:00,66.9,50.2,29.99,WSW,247,16.0,22.0,55,0.00,,,0.00,Weather View 32 v70,2013-05-08 19:25:00,
2013-05-08 12:30:00,66.9,49.7,29.99,NW,315,13.0,22.0,54,0.00,,,0.00,Weather View 32 v70,2013-05-08 19:30:00,
2013-05-08 12:35:00,67.1,50.3,29.99,WSW,250,11.0,22.0,55,0.00,,,0.00,Weather View 32 v70,2013-05-08 19:35:00,
2013-05-08 12:39:00,67.8,50.5,29.99,WNW,296,11.0,22.0,54,0.00,,,0.00,Weather View 32 v70,2013-05-08 19:39:00,
2013-05-08 12:44:00,67.8,50.5,29.99,West,279,9.0,22.0,54,0.00,,,0.00,Weather View 32 v70,2013-05-08 19:44:00,
2013-05-08 12:49:00,68.1,50.3,29.99,WNW,292,5.0,22.0,53,0.00,,,0.00,Weather View 32 v70,2013-05-08 19:49:00,
2013-05-08 12:54:00,68.3,50.5,29.99,SSW,205,5.0,23.0,53,0.00,,,0.00,Weather View 32 v70,2013-05-08 19:54:00,
2013-05-08 12:59:00,68.3,50.5,29.98,WNW,293,9.0,23.0,53,0.00,,,0.00,Weather View 32 v70,2013-05-08 19:59:00,
2013-05-08 13:04:00,68.4,50.6,29.98,West,261,11.0,23.0,53,0.00,,,0.00,Weather View 32 v70,2013-05-08 20:04:00,
2013-05-08 13:09:00,68.4,50.6,29.98,NW,325,9.0,23.0,53,0.00,,,0.00,Weather View 32 v70,2013-05-08 20:09:00,
2013-05-08 13:14:00,68.6,50.7,29.98,WSW,258,16.0,23.0,53,0.00,,,0.00,Weather View 32 v70,2013-05-08 20:14:00,
2013-05-08 13:19:00,68.6,50.2,29.98,WNW,296,12.0,23.0,52,0.00,,,0.00,Weather View 32 v70,2013-05-08 20:19:00,
2013-05-08 13:24:00,68.6,50.2,29.98,WSW,252,7.0,23.0,52,0.00,,,0.00,Weather View 32 v70,2013-05-08 20:24:00,
2013-05-08 13:29:00,68.6,50.2,29.98,NW,307,9.0,23.0,52,0.00,,,0.00,Weather View 32 v70,2013-05-08 20:29:00,
2013-05-08 13:34:00,68.6,50.2,29.98,NW,310,12.0,23.0,52,0.00,,,0.00,Weather View 32 v70,2013-05-08 20:34:00,
2013-05-08 13:39:00,68.3,50.5,29.98,NW,313,9.0,23.0,53,0.00,,,0.00,Weather View 32 v70,2013-05-08 20:39:00,
2013-05-08 13:44:00,68.4,50.6,29.98,NW,313,12.0,23.0,53,0.00,,,0.00,Weather View 32 v70,2013-05-08 20:44:00,
2013-05-08 13:49:00,68.8,50.9,29.98,NW,319,7.0,23.0,53,0.00,,,0.00,Weather View 32 v70,2013-05-08 20:49:00,
2013-05-08 13:54:00,68.6,50.2,29.97,NW,309,17.0,23.0,52,0.00,,,0.00,Weather View 32 v70,2013-05-08 20:54:00,
2013-05-08 13:59:00,68.6,50.7,29.97,WNW,302,9.0,23.0,53,0.00,,,0.00,Weather View 32 v70,2013-05-08 20:59:00,
2013-05-08 14:04:00,68.6,50.7,29.97,WSW,256,11.0,23.0,53,0.00,,,0.00,Weather View 32 v70,2013-05-08 21:04:00,
2013-05-08 14:09:00,68.6,50.2,29.97,NW,306,11.0,23.0,52,0.00,,,0.00,Weather View 32 v70,2013-05-08 21:09:00,
2013-05-08 14:14:00,69.1,50.2,29.97,NW,305,13.0,23.0,51,0.00,,,0.00,Weather View 32 v70,2013-05-08 21:14:00,
2013-05-08 14:19:00,68.9,50.5,29.97,West,271,7.0,23.0,52,0.00,,,0.00,Weather View 32 v70,2013-05-08 21:19:00,
2013-05-08 14:24:00,69.1,49.6,29.97,WNW,288,7.0,23.0,50,0.00,,,0.00,Weather View 32 v70,2013-05-08 21:24:00,
2013-05-08 14:29:00,69.3,49.8,29.97,NW,304,7.0,23.0,50,0.00,,,0.00,Weather View 32 v70,2013-05-08 21:29:00,
2013-05-08 14:34:00,68.8,49.9,29.97,West,271,13.0,23.0,51,0.00,,,0.00,Weather View 32 v70,2013-05-08 21:34:00,
2013-05-08 14:39:00,69.1,50.2,29.97,WSW,251,15.0,23.0,51,0.00,,,0.00,Weather View 32 v70,2013-05-08 21:39:00,
2013-05-08 14:44:00,68.9,49.4,29.97,NW,325,10.0,23.0,50,0.00,,,0.00,Weather View 32 v70,2013-05-08 21:44:00,
2013-05-08 14:49:00,68.9,49.4,29.97,West,271,8.0,23.0,50,0.00,,,0.00,Weather View 32 v70,2013-05-08 21:49:00,
2013-05-08 14:54:00,69.1,50.2,29.97,NW,320,9.0,24.0,51,0.00,,,0.00,Weather View 32 v70,2013-05-08 21:54:00,
2013-05-08 14:59:00,69.3,50.3,29.97,West,264,18.0,24.0,51,0.00,,,0.00,Weather View 32 v70,2013-05-08 21:59:00,
2013-05-08 15:04:00,69.4,50.4,29.97,WNW,293,10.0,24.0,51,0.00,,,0.00,Weather View 32 v70,2013-05-08 22:04:00,
2013-05-08 15:09:00,69.1,49.6,29.97,West,259,4.0,24.0,50,0.00,,,0.00,Weather View 32 v70,2013-05-08 22:09:00,
2013-05-08 15:14:00,69.3,49.8,29.96,West,272,13.0,24.0,50,0.00,,,0.00,Weather View 32 v70,2013-05-08 22:14:00,
2013-05-08 15:19:00,69.1,50.7,29.96,NNW,327,13.0,25.0,52,0.00,,,0.00,Weather View 32 v70,2013-05-08 22:19:00,
2013-05-08 15:24:00,69.3,49.8,29.96,WNW,288,4.0,25.0,50,0.00,,,0.00,Weather View 32 v70,2013-05-08 22:24:00,
2013-05-08 15:29:00,69.1,49.6,29.96,West,269,8.0,25.0,50,0.00,,,0.00,Weather View 32 v70,2013-05-08 22:29:00,
2013-05-08 15:34:00,69.3,49.8,29.95,West,273,7.0,25.0,50,0.00,,,0.00,Weather View 32 v70,2013-05-08 22:34:00,
2013-05-08 15:39:00,69.1,49.1,29.95,West,277,15.0,25.0,49,0.00,,,0.00,Weather View 32 v70,2013-05-08 22:39:00,
2013-05-08 15:44:00,69.3,49.8,29.95,WNW,296,14.0,26.0,50,0.00,,,0.00,Weather View 32 v70,2013-05-08 22:44:00,
2013-05-08 15:49:00,69.3,49.3,29.95,WNW,294,5.0,26.0,49,0.00,,,0.00,Weather View 32 v70,2013-05-08 22:49:00,
2013-05-08 15:54:00,69.6,49.5,29.95,WNW,290,9.0,26.0,49,0.00,,,0.00,Weather View 32 v70,2013-05-08 22:54:00,
2013-05-08 15:59:00,69.6,49.5,29.95,WNW,287,15.0,26.0,49,0.00,,,0.00,Weather View 32 v70,2013-05-08 22:59:00,
2013-05-08 16:04:00,69.4,49.4,29.95,West,264,11.0,26.0,49,0.00,,,0.00,Weather View 32 v70,2013-05-08 23:04:00,
2013-05-08 16:09:00,69.4,49.4,29.94,SW,232,14.0,26.0,49,0.00,,,0.00,Weather View 32 v70,2013-05-08 23:09:00,
2013-05-08 16:14:00,69.4,49.9,29.95,WNW,284,7.0,26.0,50,0.00,,,0.00,Weather View 32 v70,2013-05-08 23:14:00,
2013-05-08 16:19:00,69.3,49.8,29.95,WNW,285,18.0,26.0,50,0.00,,,0.00,Weather View 32 v70,2013-05-08 23:19:00,
2013-05-08 16:24:00,69.4,49.9,29.94,SW,228,10.0,26.0,50,0.00,,,0.00,Weather View 32 v70,2013-05-08 23:24:00,
2013-05-08 16:29:00,69.4,49.9,29.94,WNW,299,14.0,26.0,50,0.00,,,0.00,Weather View 32 v70,2013-05-08 23:29:00,
2013-05-08 16:34:00,69.3,49.8,29.94,WNW,290,11.0,26.0,50,0.00,,,0.00,Weather View 32 v70,2013-05-08 23:34:00,
2013-05-08 16:39:00,69.4,49.9,29.94,WNW,283,5.0,26.0,50,0.00,,,0.00,Weather View 32 v70,2013-05-08 23:39:00,
2013-05-08 16:44:00,69.3,49.3,29.94,West,259,7.0,24.0,49,0.00,,,0.00,Weather View 32 v70,2013-05-08 23:44:00,
2013-05-08 16:49:00,69.3,49.8,29.94,WNW,303,7.0,24.0,50,0.00,,,0.00,Weather View 32 v70,2013-05-08 23:49:00,
2013-05-08 16:54:00,69.4,49.9,29.94,WSW,253,9.0,24.0,50,0.00,,,0.00,Weather View 32 v70,2013-05-08 23:54:00,
2013-05-08 16:59:00,69.6,50.1,29.94,West,278,7.0,24.0,50,0.00,,,0.00,Weather View 32 v70,2013-05-08 23:59:00,
2013-05-08 17:04:00,69.4,49.9,29.94,West,281,12.0,24.0,50,0.00,,,0.00,Weather View 32 v70,2013-05-09 00:04:00,
2013-05-08 17:09:00,69.3,50.3,29.94,WNW,288,13.0,24.0,51,0.00,,,0.00,Weather View 32 v70,2013-05-09 00:09:00,
2013-05-08 17:14:00,69.1,50.2,29.94,NW,317,8.0,24.0,51,0.00,,,0.00,Weather View 32 v70,2013-05-09 00:14:00,
2013-05-08 17:19:00,69.3,49.8,29.94,West,265,7.0,24.0,50,0.00,,,0.00,Weather View 32 v70,2013-05-09 00:19:00,
2013-05-08 17:24:00,69.1,50.7,29.94,NW,313,14.0,24.0,52,0.00,,,0.00,Weather View 32 v70,2013-05-09 00:24:00,
2013-05-08 17:29:00,69.1,50.2,29.94,WNW,296,13.0,24.0,51,0.00,,,0.00,Weather View 32 v70,2013-05-09 00:29:00,
2013-05-08 17:34:00,68.9,50.5,29.94,NW,318,19.0,24.0,52,0.00,,,0.00,Weather View 32 v70,2013-05-09 00:34:00,
2013-05-08 17:39:00,68.9,50.0,29.94,WNW,300,6.0,24.0,51,0.00,,,0.00,Weather View 32 v70,2013-05-09 00:39:00,
2013-05-08 17:44:00,68.6,50.2,29.94,WNW,290,9.0,25.0,52,0.00,,,0.00,Weather View 32 v70,2013-05-09 00:44:00,
2013-05-08 17:49:00,68.6,50.2,29.95,WSW,247,9.0,25.0,52,0.00,,,0.00,Weather View 32 v70,2013-05-09 00:49:00,
2013-05-08 17:54:00,68.4,50.6,29.94,WSW,254,7.0,25.0,53,0.00,,,0.00,Weather View 32 v70,2013-05-09 00:54:00,
2013-05-08 17:59:00,68.4,50.6,29.94,NNW,329,12.0,25.0,53,0.00,,,0.00,Weather View 32 v70,2013-05-09 00:59:00,
2013-05-08 18:04:00,68.4,51.1,29.94,West,271,2.0,25.0,54,0.00,,,0.00,Weather View 32 v70,2013-05-09 01:04:00,
2013-05-08 18:09:00,68.3,51.0,29.94,West,281,11.0,25.0,54,0.00,,,0.00,Weather View 32 v70,2013-05-09 01:09:00,
2013-05-08 18:14:00,68.1,50.8,29.94,WNW,292,10.0,25.0,54,0.00,,,0.00,Weather View 32 v70,2013-05-09 01:14:00,
2013-05-08 18:19:00,68.1,50.8,29.94,WNW,291,3.0,25.0,54,0.00,,,0.00,Weather View 32 v70,2013-05-09 01:19:00,
2013-05-08 18:24:00,67.9,50.6,29.94,WSW,248,9.0,25.0,54,0.00,,,0.00,Weather View 32 v70,2013-05-09 01:24:00,
2013-05-08 18:29:00,67.9,50.6,29.94,NW,318,11.0,25.0,54,0.00,,,0.00,Weather View 32 v70,2013-05-09 01:29:00,
2013-05-08 18:34:00,67.9,50.6,29.94,NW,311,7.0,25.0,54,0.00,,,0.00,Weather View 32 v70,2013-05-09 01:34:00,
2013-05-08 18:39:00,67.8,50.5,29.94,WSW,252,9.0,25.0,54,0.00,,,0.00,Weather View 32 v70,2013-05-09 01:39:00,
2013-05-08 18:44:00,67.6,50.8,29.94,NW,308,18.0,25.0,55,0.00,,,0.00,Weather View 32 v70,2013-05-09 01:44:00,
2013-05-08 18:49:00,67.3,50.5,29.94,WNW,297,10.0,25.0,55,0.00,,,0.00,Weather View 32 v70,2013-05-09 01:49:00,
2013-05-08 18:54:00,67.3,51.0,29.95,WNW,284,14.0,25.0,56,0.00,,,0.00,Weather View 32 v70,2013-05-09 01:54:00,
2013-05-08 18:59:00,67.1,50.8,29.95,West,279,13.0,25.0,56,0.00,,,0.00,Weather View 32 v70,2013-05-09 01:59:00,
2013-05-08 19:04:00,66.9,51.1,29.95,NW,318,10.0,25.0,57,0.00,,,0.00,Weather View 32 v70,2013-05-09 02:04:00,
2013-05-08 19:09:00,66.9,51.6,29.95,West,275,15.0,25.0,58,0.00,,,0.00,Weather View 32 v70,2013-05-09 02:09:00,
2013-05-08 19:14:00,66.8,51.0,29.95,West,267,3.0,25.0,57,0.00,,,0.00,Weather View 32 v70,2013-05-09 02:14:00,
2013-05-08 19:19:00,66.4,51.1,29.95,WNW,297,4.0,25.0,58,0.00,,,0.00,Weather View 32 v70,2013-05-09 02:19:00,
2013-05-08 19:24:00,66.3,51.0,29.95,NW,313,4.0,25.0,58,0.00,,,0.00,Weather View 32 v70,2013-05-09 02:24:00,
2013-05-08 19:29:00,66.1,50.9,29.95,WSW,240,8.0,25.0,58,0.00,,,0.00,Weather View 32 v70,2013-05-09 02:29:00,
2013-05-08 19:34:00,66.0,51.2,29.95,WNW,300,12.0,25.0,59,0.00,,,0.00,Weather View 32 v70,2013-05-09 02:34:00,
2013-05-08 19:39:00,66.0,51.2,29.95,WNW,286,9.0,25.0,59,0.00,,,0.00,Weather View 32 v70,2013-05-09 02:39:00,
2013-05-08 19:44:00,65.8,51.0,29.95,West,263,7.0,25.0,59,0.00,,,0.00,Weather View 32 v70,2013-05-09 02:44:00,
2013-05-08 19:49:00,65.6,50.8,29.95,WNW,285,4.0,23.0,59,0.00,,,0.00,Weather View 32 v70,2013-05-09 02:49:00,
2013-05-08 19:54:00,65.5,51.2,29.95,WSW,257,6.0,23.0,60,0.00,,,0.00,Weather View 32 v70,2013-05-09 02:54:00,
2013-05-08 19:59:00,65.3,51.0,29.96,West,280,4.0,23.0,60,0.00,,,0.00,Weather View 32 v70,2013-05-09 02:59:00,
2013-05-08 20:04:00,65.2,50.9,29.96,WSW,257,12.0,24.0,60,0.00,,,0.00,Weather View 32 v70,2013-05-09 03:04:00,
2013-05-08 20:09:00,65.2,51.4,29.96,West,259,14.0,25.0,61,0.00,,,0.00,Weather View 32 v70,2013-05-09 03:09:00,
2013-05-08 20:14:00,65.2,51.4,29.96,West,273,11.0,25.0,61,0.00,,,0.00,Weather View 32 v70,2013-05-09 03:14:00,
2013-05-08 20:19:00,65.0,51.2,29.97,West,273,14.0,26.0,61,0.00,,,0.00,Weather View 32 v70,2013-05-09 03:19:00,
2013-05-08 20:24:00,65.0,51.2,29.97,West,275,10.0,27.0,61,0.00,,,0.00,Weather View 32 v70,2013-05-09 03:24:00,
2013-05-08 20:29:00,64.8,51.0,29.97,West,267,11.0,27.0,61,0.00,,,0.00,Weather View 32 v70,2013-05-09 03:29:00,
2013-05-08 20:34:00,64.8,51.0,29.97,West,264,6.0,27.0,61,0.00,,,0.00,Weather View 32 v70,2013-05-09 03:34:00,
2013-05-08 20:39:00,64.7,50.9,29.97,West,279,4.0,27.0,61,0.00,,,0.00,Weather View 32 v70,2013-05-09 03:39:00,
2013-05-08 20:44:00,64.5,51.2,29.97,WNW,296,8.0,27.0,62,0.00,,,0.00,Weather View 32 v70,2013-05-09 03:44:00,
2013-05-08 20:49:00,64.3,51.0,29.97,West,270,13.0,27.0,62,0.00,,,0.00,Weather View 32 v70,2013-05-09 03:49:00,
2013-05-08 20:54:00,64.3,51.0,29.98,WNW,294,7.0,27.0,62,0.00,,,0.00,Weather View 32 v70,2013-05-09 03:54:00,
2013-05-08 20:59:00,64.3,51.0,29.98,WSW,240,5.0,27.0,62,0.00,,,0.00,Weather View 32 v70,2013-05-09 03:59:00,
2013-05-08 21:01:00,64.3,51.0,29.98,West,277,3.0,27.0,62,0.00,,,0.00,Weather View 32 v70,2013-05-09 04:01:00,
2013-05-08 21:06:00,64.3,51.0,29.99,WNW,298,5.0,27.0,62,0.00,,,0.00,Weather View 32 v70,2013-05-09 04:06:00,
2013-05-08 21:11:00,64.2,50.9,29.99,West,263,16.0,27.0,62,0.00,,,0.00,Weather View 32 v70,2013-05-09 04:11:00,
2013-05-08 21:16:00,64.2,50.9,30.00,West,271,6.0,27.0,62,0.00,,,0.00,Weather View 32 v70,2013-05-09 04:16:00,
2013-05-08 21:21:00,64.0,50.7,30.00,WSW,258,7.0,27.0,62,0.00,,,0.00,Weather View 32 v70,2013-05-09 04:21:00,
2013-05-08 21:26:00,64.0,50.7,30.00,WSW,240,6.0,24.0,62,0.00,,,0.00,Weather View 32 v70,2013-05-09 04:26:00,
2013-05-08 21:31:00,63.9,51.0,30.01,West,279,4.0,24.0,63,0.00,,,0.00,Weather View 32 v70,2013-05-09 04:31:00,
2013-05-08 21:36:00,63.9,50.6,30.01,West,259,12.0,24.0,62,0.00,,,0.00,Weather View 32 v70,2013-05-09 04:36:00,
2013-05-08 21:41:00,64.0,50.7,30.01,SSW,211,9.0,24.0,62,0.00,,,0.00,Weather View 32 v70,2013-05-09 04:41:00,
2013-05-08 21:46:00,64.0,50.7,30.01,NW,316,8.0,24.0,62,0.00,,,0.00,Weather View 32 v70,2013-05-09 04:46:00,
2013-05-08 21:51:00,64.2,50.9,30.01,WNW,286,9.0,25.0,62,0.00,,,0.00,Weather View 32 v70,2013-05-09 04:51:00,
2013-05-08 21:56:00,64.0,50.7,30.01,WNW,295,8.0,25.0,62,0.00,,,0.00,Weather View 32 v70,2013-05-09 04:56:00,
2013-05-08 22:01:00,64.0,50.7,30.02,WSW,242,15.0,25.0,62,0.00,,,0.00,Weather View 32 v70,2013-05-09 05:01:00,
2013-05-08 22:06:00,64.0,50.7,30.02,West,265,20.0,25.0,62,0.00,,,0.00,Weather View 32 v70,2013-05-09 05:06:00,
2013-05-08 22:11:00,64.0,50.7,30.02,WNW,288,3.0,25.0,62,0.00,,,0.00,Weather View 32 v70,2013-05-09 05:11:00,
2013-05-08 22:16:00,63.9,50.6,30.02,WNW,294,7.0,25.0,62,0.00,,,0.00,Weather View 32 v70,2013-05-09 05:16:00,
2013-05-08 22:21:00,63.9,50.6,30.02,West,271,11.0,25.0,62,0.00,,,0.00,Weather View 32 v70,2013-05-09 05:21:00,
2013-05-08 22:26:00,63.9,50.6,30.02,NW,317,8.0,25.0,62,0.00,,,0.00,Weather View 32 v70,2013-05-09 05:26:00,
2013-05-08 22:31:00,63.9,50.6,30.02,WNW,284,7.0,25.0,62,0.00,,,0.00,Weather View 32 v70,2013-05-09 05:31:00,
2013-05-08 22:36:00,63.9,50.6,30.03,WSW,248,8.0,25.0,62,0.00,,,0.00,Weather View 32 v70,2013-05-09 05:36:00,
2013-05-08 22:41:00,63.9,50.6,30.03,West,272,5.0,25.0,62,0.00,,,0.00,Weather View 32 v70,2013-05-09 05:41:00,
2013-05-08 22:46:00,64.0,50.7,30.03,WNW,296,8.0,25.0,62,0.00,,,0.00,Weather View 32 v70,2013-05-09 05:46:00,
2013-05-08 22:51:00,64.0,50.7,30.04,West,260,5.0,22.0,62,0.00,,,0.00,Weather View 32 v70,2013-05-09 05:51:00,
2013-05-08 22:56:00,64.0,50.7,30.04,West,281,5.0,22.0,62,0.00,,,0.00,Weather View 32 v70,2013-05-09 05:56:00,
2013-05-08 23:01:00,64.0,51.1,30.03,NW,315,10.0,22.0,63,0.00,,,0.00,Weather View 32 v70,2013-05-09 06:01:00,
2013-05-08 23:06:00,63.9,51.0,30.04,West,280,2.0,22.0,63,0.00,,,0.00,Weather View 32 v70,2013-05-09 06:06:00,
2013-05-08 23:11:00,63.7,50.8,30.04,WNW,285,4.0,21.0,63,0.00,,,0.00,Weather View 32 v70,2013-05-09 06:11:00,
2013-05-08 23:16:00,63.7,51.3,30.04,West,273,2.0,21.0,64,0.00,,,0.00,Weather View 32 v70,2013-05-09 06:16:00,
2013-05-08 23:21:00,63.5,51.1,30.04,WNW,294,2.0,19.0,64,0.00,,,0.00,Weather View 32 v70,2013-05-09 06:21:00,
2013-05-08 23:26:00,63.5,51.1,30.04,West,260,11.0,19.0,64,0.00,,,0.00,Weather View 32 v70,2013-05-09 06:26:00,
2013-05-08 23:31:00,63.5,51.1,30.05,WSW,248,6.0,19.0,64,0.00,,,0.00,Weather View 32 v70,2013-05-09 06:31:00,
2013-05-08 23:36:00,63.5,51.1,30.04,WSW,248,6.0,19.0,64,0.00,,,0.00,Weather View 32 v70,2013-05-09 06:36:00,
2013-05-08 23:40:00,63.4,51.0,30.05,WNW,286,3.0,19.0,64,0.00,,,0.00,Weather View 32 v70,2013-05-09 06:40:00,
2013-05-08 23:45:00,63.4,51.0,30.05,WSW,244,12.0,19.0,64,0.00,,,0.00,Weather View 32 v70,2013-05-09 06:45:00,
2013-05-08 23:50:00,63.4,51.0,30.05,WNW,293,3.0,19.0,64,0.00,,,0.00,Weather View 32 v70,2013-05-09 06:50:00,
2013-05-08 23:55:00,63.4,51.0,30.05,WNW,286,9.0,19.0,64,0.00,,,0.00,Weather View 32 v70,2013-05-09 06:55:00,